sensor_id;sensor_type;location;lat;lon;timestamp;pressure;altitude;pressure_sealevel;temperature;humidity
29359;BME280;16347;53.232;6.556;2022-09-20T00:01:15;102074.25;;;15.05;55.09
29359;BME280;16347;53.232;6.556;2022-09-20T00:03:45;102079.91;;;15.03;55.56
29359;BME280;16347;53.232;6.556;2022-09-20T00:06:15;102074.03;;;14.98;56.35
29359;BME280;16347;53.232;6.556;2022-09-20T00:08:46;102078.81;;;14.96;56.69
29359;BME280;16347;53.232;6.556;2022-09-20T00:11:16;102077.06;;;14.95;56.50
29359;BME280;16347;53.232;6.556;2022-09-20T00:13:46;102083.09;;;14.99;55.87
29359;BME280;16347;53.232;6.556;2022-09-20T00:16:17;102090.78;;;14.95;56.57
29359;BME280;16347;53.232;6.556;2022-09-20T00:18:47;102087.78;;;14.88;55.81
29359;BME280;16347;53.232;6.556;2022-09-20T00:21:16;102079.75;;;14.87;56.35
29359;BME280;16347;53.232;6.556;2022-09-20T00:23:45;102085.78;;;14.91;56.50
29359;BME280;16347;53.232;6.556;2022-09-20T00:26:13;102082.31;;;14.88;56.80
29359;BME280;16347;53.232;6.556;2022-09-20T00:28:43;102085.06;;;14.88;56.50
29359;BME280;16347;53.232;6.556;2022-09-20T00:31:13;102091.31;;;14.81;56.35
29359;BME280;16347;53.232;6.556;2022-09-20T00:33:41;102096.19;;;14.87;56.12
29359;BME280;16347;53.232;6.556;2022-09-20T00:36:27;102094.91;;;14.81;55.74
29359;BME280;16347;53.232;6.556;2022-09-20T00:38:57;102097.50;;;14.83;55.64
29359;BME280;16347;53.232;6.556;2022-09-20T00:41:27;102101.25;;;14.82;55.38
29359;BME280;16347;53.232;6.556;2022-09-20T00:43:55;102097.19;;;14.68;54.00
29359;BME280;16347;53.232;6.556;2022-09-20T00:46:27;102097.66;;;14.64;54.43
29359;BME280;16347;53.232;6.556;2022-09-20T00:49:00;102098.81;;;14.61;54.96
29359;BME280;16347;53.232;6.556;2022-09-20T00:51:32;102112.94;;;14.39;56.64
29359;BME280;16347;53.232;6.556;2022-09-20T00:54:04;102107.81;;;14.54;55.88
29359;BME280;16347;53.232;6.556;2022-09-20T00:56:38;102104.13;;;14.63;55.13
29359;BME280;16347;53.232;6.556;2022-09-20T00:59:11;102105.16;;;14.62;55.21
29359;BME280;16347;53.232;6.556;2022-09-20T01:01:42;102100.13;;;14.57;54.87
29359;BME280;16347;53.232;6.556;2022-09-20T01:04:10;102098.56;;;14.55;55.58
29359;BME280;16347;53.232;6.556;2022-09-20T01:06:41;102106.53;;;14.48;56.17
29359;BME280;16347;53.232;6.556;2022-09-20T01:09:13;102104.13;;;14.63;55.98
29359;BME280;16347;53.232;6.556;2022-09-20T01:11:42;102096.78;;;14.63;55.64
29359;BME280;16347;53.232;6.556;2022-09-20T01:14:14;102100.41;;;14.64;55.78
29359;BME280;16347;53.232;6.556;2022-09-20T01:16:44;102095.28;;;14.51;56.38
29359;BME280;16347;53.232;6.556;2022-09-20T01:19:16;102095.81;;;14.55;56.25
29359;BME280;16347;53.232;6.556;2022-09-20T01:21:46;102096.78;;;14.81;55.69
29359;BME280;16347;53.232;6.556;2022-09-20T01:24:21;102094.19;;;14.62;55.82
29359;BME280;16347;53.232;6.556;2022-09-20T01:26:57;102095.03;;;14.45;56.43
29359;BME280;16347;53.232;6.556;2022-09-20T01:29:42;102091.66;;;14.51;56.35
29359;BME280;16347;53.232;6.556;2022-09-20T01:32:19;102092.41;;;14.53;56.45
29359;BME280;16347;53.232;6.556;2022-09-20T01:34:53;102088.13;;;14.41;56.36
29359;BME280;16347;53.232;6.556;2022-09-20T01:37:25;102091.03;;;14.39;56.32
29359;BME280;16347;53.232;6.556;2022-09-20T01:40:02;102089.56;;;14.45;56.27
29359;BME280;16347;53.232;6.556;2022-09-20T01:42:39;102098.84;;;14.34;56.73
29359;BME280;16347;53.232;6.556;2022-09-20T01:45:20;102103.47;;;14.33;56.96
29359;BME280;16347;53.232;6.556;2022-09-20T01:47:53;102092.03;;;14.38;56.77
29359;BME280;16347;53.232;6.556;2022-09-20T01:50:31;102083.28;;;14.34;56.88
29359;BME280;16347;53.232;6.556;2022-09-20T01:53:20;102087.56;;;14.37;56.03
29359;BME280;16347;53.232;6.556;2022-09-20T01:59:17;102090.25;;;14.19;56.97
29359;BME280;16347;53.232;6.556;2022-09-20T02:02:01;102092.13;;;14.19;57.34
29359;BME280;16347;53.232;6.556;2022-09-20T02:04:55;102094.63;;;14.12;56.37
29359;BME280;16347;53.232;6.556;2022-09-20T02:07:41;102099.81;;;14.06;57.04
29359;BME280;16347;53.232;6.556;2022-09-20T02:13:27;102097.97;;;14.06;56.83
29359;BME280;16347;53.232;6.556;2022-09-20T02:16:29;102088.69;;;14.17;56.57
29359;BME280;16347;53.232;6.556;2022-09-20T02:19:15;102090.63;;;14.07;55.98
29359;BME280;16347;53.232;6.556;2022-09-20T02:21:52;102102.31;;;13.99;57.00
29359;BME280;16347;53.232;6.556;2022-09-20T02:24:28;102104.56;;;14.04;57.55
29359;BME280;16347;53.232;6.556;2022-09-20T02:27:15;102101.84;;;14.04;56.06
29359;BME280;16347;53.232;6.556;2022-09-20T02:29:56;102106.91;;;13.99;56.28
29359;BME280;16347;53.232;6.556;2022-09-20T02:32:37;102106.75;;;14.00;56.35
29359;BME280;16347;53.232;6.556;2022-09-20T02:35:17;102102.81;;;14.12;56.98
29359;BME280;16347;53.232;6.556;2022-09-20T02:38:07;102097.13;;;13.96;56.99
29359;BME280;16347;53.232;6.556;2022-09-20T02:40:49;102103.47;;;13.97;56.43
29359;BME280;16347;53.232;6.556;2022-09-20T02:43:28;102099.88;;;13.96;56.40
29359;BME280;16347;53.232;6.556;2022-09-20T02:46:05;102092.78;;;14.03;56.15
29359;BME280;16347;53.232;6.556;2022-09-20T02:48:42;102091.66;;;13.96;56.62
29359;BME280;16347;53.232;6.556;2022-09-20T02:51:19;102094.66;;;14.03;56.13
29359;BME280;16347;53.232;6.556;2022-09-20T02:54:04;102097.09;;;14.06;56.03
29359;BME280;16347;53.232;6.556;2022-09-20T02:56:44;102096.09;;;14.07;56.06
29359;BME280;16347;53.232;6.556;2022-09-20T02:59:23;102101.69;;;14.05;55.87
29359;BME280;16347;53.232;6.556;2022-09-20T03:02:02;102098.53;;;14.00;56.42
29359;BME280;16347;53.232;6.556;2022-09-20T03:04:44;102099.81;;;14.06;55.63
29359;BME280;16347;53.232;6.556;2022-09-20T03:07:27;102087.59;;;14.00;56.11
29359;BME280;16347;53.232;6.556;2022-09-20T03:10:06;102099.09;;;14.04;55.69
29359;BME280;16347;53.232;6.556;2022-09-20T03:12:51;102104.72;;;14.02;55.54
29359;BME280;16347;53.232;6.556;2022-09-20T03:15:30;102102.31;;;13.99;54.65
29359;BME280;16347;53.232;6.556;2022-09-20T03:18:06;102104.31;;;13.97;55.19
29359;BME280;16347;53.232;6.556;2022-09-20T03:20:42;102102.56;;;14.06;55.59
29359;BME280;16347;53.232;6.556;2022-09-20T03:23:30;102104.72;;;14.02;55.59
29359;BME280;16347;53.232;6.556;2022-09-20T03:26:14;102095.97;;;13.99;55.67
29359;BME280;16347;53.232;6.556;2022-09-20T03:28:54;102103.31;;;13.98;56.11
29359;BME280;16347;53.232;6.556;2022-09-20T03:31:33;102093.66;;;13.94;55.44
29359;BME280;16347;53.232;6.556;2022-09-20T03:34:15;102102.75;;;13.95;56.02
29359;BME280;16347;53.232;6.556;2022-09-20T03:37:02;102108.63;;;14.00;56.36
29359;BME280;16347;53.232;6.556;2022-09-20T03:40:06;102105.75;;;14.01;56.25
29359;BME280;16347;53.232;6.556;2022-09-20T03:42:41;102100.75;;;13.97;55.50
29359;BME280;16347;53.232;6.556;2022-09-20T03:45:37;102104.88;;;14.01;56.05
29359;BME280;16347;53.232;6.556;2022-09-20T03:48:32;102104.47;;;13.96;56.20
29359;BME280;16347;53.232;6.556;2022-09-20T03:51:12;102106.09;;;13.88;56.63
29359;BME280;16347;53.232;6.556;2022-09-20T03:53:58;102107.25;;;13.86;56.87
29359;BME280;16347;53.232;6.556;2022-09-20T03:56:58;102112.72;;;13.86;56.52
29359;BME280;16347;53.232;6.556;2022-09-20T03:59:47;102102.47;;;13.88;56.35
29359;BME280;16347;53.232;6.556;2022-09-20T04:02:31;102102.19;;;13.91;56.42
29359;BME280;16347;53.232;6.556;2022-09-20T04:05:06;102099.44;;;13.91;56.35
29359;BME280;16347;53.232;6.556;2022-09-20T04:07:45;102101.88;;;13.94;56.47
29359;BME280;16347;53.232;6.556;2022-09-20T04:10:32;102100.28;;;14.01;56.69
29359;BME280;16347;53.232;6.556;2022-09-20T04:13:14;102098.81;;;14.07;56.43
29359;BME280;16347;53.232;6.556;2022-09-20T04:16:02;102104.81;;;14.10;56.80
29359;BME280;16347;53.232;6.556;2022-09-20T04:18:36;102106.41;;;14.13;57.30
29359;BME280;16347;53.232;6.556;2022-09-20T04:21:11;102108.13;;;14.14;57.51
29359;BME280;16347;53.232;6.556;2022-09-20T04:23:46;102100.47;;;14.17;57.72
29359;BME280;16347;53.232;6.556;2022-09-20T04:26:21;102100.91;;;14.22;57.41
29359;BME280;16347;53.232;6.556;2022-09-20T04:28:55;102100.41;;;14.27;57.49
29359;BME280;16347;53.232;6.556;2022-09-20T04:31:34;102097.53;;;14.28;57.83
29359;BME280;16347;53.232;6.556;2022-09-20T04:34:05;102108.50;;;14.28;57.85
29359;BME280;16347;53.232;6.556;2022-09-20T04:36:57;102101.44;;;14.35;57.90
29359;BME280;16347;53.232;6.556;2022-09-20T04:39:38;102105.44;;;14.31;57.71
29359;BME280;16347;53.232;6.556;2022-09-20T04:45:50;102102.88;;;14.30;57.75
29359;BME280;16347;53.232;6.556;2022-09-20T04:52:06;102106.41;;;14.13;58.40
29359;BME280;16347;53.232;6.556;2022-09-20T04:58:24;102119.47;;;14.19;58.19
29359;BME280;16347;53.232;6.556;2022-09-20T05:04:19;102124.69;;;14.12;58.87
29359;BME280;16347;53.232;6.556;2022-09-20T05:13:11;102134.91;;;14.10;59.63
29359;BME280;16347;53.232;6.556;2022-09-20T05:15:49;102139.25;;;14.13;59.78
29359;BME280;16347;53.232;6.556;2022-09-20T05:21:44;102139.63;;;14.18;60.50
29359;BME280;16347;53.232;6.556;2022-09-20T05:24:24;102143.09;;;14.20;60.54
29359;BME280;16347;53.232;6.556;2022-09-20T05:27:10;102147.09;;;14.25;60.33
29359;BME280;16347;53.232;6.556;2022-09-20T05:29:49;102154.44;;;14.25;60.33
29359;BME280;16347;53.232;6.556;2022-09-20T05:32:23;102148.72;;;14.18;60.58
29359;BME280;16347;53.232;6.556;2022-09-20T05:35:00;102152.34;;;14.09;60.64
29359;BME280;16347;53.232;6.556;2022-09-20T05:37:39;102151.06;;;14.04;61.32
29359;BME280;16347;53.232;6.556;2022-09-20T05:40:20;102159.44;;;14.02;61.49
29359;BME280;16347;53.232;6.556;2022-09-20T05:42:54;102154.22;;;14.09;61.56
29359;BME280;16347;53.232;6.556;2022-09-20T05:45:46;102156.22;;;14.16;61.77
29359;BME280;16347;53.232;6.556;2022-09-20T05:48:22;102159.66;;;14.18;61.58
29359;BME280;16347;53.232;6.556;2022-09-20T05:50:58;102160.41;;;14.11;61.43
29359;BME280;16347;53.232;6.556;2022-09-20T05:53:55;102158.38;;;14.13;61.76
29359;BME280;16347;53.232;6.556;2022-09-20T05:56:35;102158.53;;;14.11;61.33
29359;BME280;16347;53.232;6.556;2022-09-20T05:59:29;102160.41;;;14.11;61.57
29359;BME280;16347;53.232;6.556;2022-09-20T06:02:11;102171.19;;;14.12;61.55
29359;BME280;16347;53.232;6.556;2022-09-20T06:04:51;102172.94;;;14.13;61.20
29359;BME280;16347;53.232;6.556;2022-09-20T06:07:31;102175.19;;;14.18;61.41
29359;BME280;16347;53.232;6.556;2022-09-20T06:10:26;102172.28;;;14.29;61.16
29359;BME280;16347;53.232;6.556;2022-09-20T06:13:10;102182.09;;;14.22;61.13
29359;BME280;16347;53.232;6.556;2022-09-20T06:15:44;102171.72;;;14.25;61.50
29359;BME280;16347;53.232;6.556;2022-09-20T06:18:22;102188.00;;;14.36;61.57
29359;BME280;16347;53.232;6.556;2022-09-20T06:20:59;102190.41;;;14.40;61.63
29359;BME280;16347;53.232;6.556;2022-09-20T06:23:33;102191.97;;;14.42;61.31
29359;BME280;16347;53.232;6.556;2022-09-20T06:26:05;102197.84;;;14.47;61.03
29359;BME280;16347;53.232;6.556;2022-09-20T06:28:37;102211.69;;;14.46;60.81
29359;BME280;16347;53.232;6.556;2022-09-20T06:31:07;102220.81;;;14.36;60.87
29359;BME280;16347;53.232;6.556;2022-09-20T06:33:40;102226.69;;;14.42;61.08
29359;BME280;16347;53.232;6.556;2022-09-20T06:36:11;102223.59;;;14.54;60.88
29359;BME280;16347;53.232;6.556;2022-09-20T06:39:06;102220.53;;;14.40;61.59
29359;BME280;16347;53.232;6.556;2022-09-20T06:41:55;102233.72;;;14.44;61.58
29359;BME280;16347;53.232;6.556;2022-09-20T06:44:25;102237.34;;;14.45;61.48
29359;BME280;16347;53.232;6.556;2022-09-20T06:46:52;102224.94;;;14.50;61.20
29359;BME280;16347;53.232;6.556;2022-09-20T06:49:21;102231.97;;;14.53;61.55
29359;BME280;16347;53.232;6.556;2022-09-20T06:51:49;102222.91;;;14.52;61.22
29359;BME280;16347;53.232;6.556;2022-09-20T06:54:20;102211.50;;;14.57;61.28
29359;BME280;16347;53.232;6.556;2022-09-20T06:56:50;102207.75;;;14.58;61.54
29359;BME280;16347;53.232;6.556;2022-09-20T06:59:18;102200.00;;;14.53;61.95
29359;BME280;16347;53.232;6.556;2022-09-20T07:01:46;102209.47;;;14.59;62.20
29359;BME280;16347;53.232;6.556;2022-09-20T07:04:15;102210.72;;;14.64;62.43
29359;BME280;16347;53.232;6.556;2022-09-20T07:06:43;102205.50;;;14.71;62.54
29359;BME280;16347;53.232;6.556;2022-09-20T07:09:11;102203.50;;;14.73;62.56
29359;BME280;16347;53.232;6.556;2022-09-20T07:11:40;102203.03;;;14.77;62.61
29359;BME280;16347;53.232;6.556;2022-09-20T07:14:11;102206.31;;;14.81;62.82
29359;BME280;16347;53.232;6.556;2022-09-20T07:16:41;102202.44;;;14.83;62.69
29359;BME280;16347;53.232;6.556;2022-09-20T07:19:09;102212.91;;;14.88;62.64
29359;BME280;16347;53.232;6.556;2022-09-20T07:21:37;102207.44;;;14.88;62.65
29359;BME280;16347;53.232;6.556;2022-09-20T07:24:04;102214.50;;;14.91;62.66
29359;BME280;16347;53.232;6.556;2022-09-20T07:26:32;102220.81;;;14.91;62.90
29359;BME280;16347;53.232;6.556;2022-09-20T07:29:02;102210.41;;;14.95;62.84
29359;BME280;16347;53.232;6.556;2022-09-20T07:31:30;102220.38;;;14.96;62.28
29359;BME280;16347;53.232;6.556;2022-09-20T07:33:58;102222.97;;;14.97;62.50
29359;BME280;16347;53.232;6.556;2022-09-20T07:36:26;102225.22;;;15.02;62.47
29359;BME280;16347;53.232;6.556;2022-09-20T07:38:55;102228.19;;;15.08;62.60
29359;BME280;16347;53.232;6.556;2022-09-20T07:41:22;102228.75;;;15.12;62.46
29359;BME280;16347;53.232;6.556;2022-09-20T07:43:52;102230.72;;;15.19;62.33
29359;BME280;16347;53.232;6.556;2022-09-20T07:46:21;102237.63;;;15.23;62.41
29359;BME280;16347;53.232;6.556;2022-09-20T07:48:50;102236.44;;;15.26;62.15
29359;BME280;16347;53.232;6.556;2022-09-20T07:51:18;102238.72;;;15.30;61.80
29359;BME280;16347;53.232;6.556;2022-09-20T07:53:46;102239.97;;;15.36;61.70
29359;BME280;16347;53.232;6.556;2022-09-20T07:56:14;102240.53;;;15.39;61.20
29359;BME280;16347;53.232;6.556;2022-09-20T07:58:43;102243.97;;;15.41;61.01
29359;BME280;16347;53.232;6.556;2022-09-20T08:01:17;102238.88;;;15.47;60.95
29359;BME280;16347;53.232;6.556;2022-09-20T08:03:48;102245.09;;;15.49;60.71
29359;BME280;16347;53.232;6.556;2022-09-20T08:06:16;102245.50;;;15.54;60.51
29359;BME280;16347;53.232;6.556;2022-09-20T08:08:47;102252.69;;;15.55;60.41
29359;BME280;16347;53.232;6.556;2022-09-20T08:11:17;102257.25;;;15.64;60.52
29359;BME280;16347;53.232;6.556;2022-09-20T08:13:47;102253.31;;;15.66;59.73
29359;BME280;16347;53.232;6.556;2022-09-20T08:16:36;102250.13;;;15.71;59.43
29359;BME280;16347;53.232;6.556;2022-09-20T08:19:06;102253.56;;;15.73;59.25
29359;BME280;16347;53.232;6.556;2022-09-20T08:21:35;102257.16;;;15.73;59.59
29359;BME280;16347;53.232;6.556;2022-09-20T08:24:03;102251.91;;;15.80;58.68
29359;BME280;16347;53.232;6.556;2022-09-20T08:26:31;102259.50;;;15.86;57.70
29359;BME280;16347;53.232;6.556;2022-09-20T08:29:01;102257.94;;;15.83;56.67
29359;BME280;16347;53.232;6.556;2022-09-20T08:31:33;102256.75;;;15.86;56.38
29359;BME280;16347;53.232;6.556;2022-09-20T08:34:03;102260.44;;;15.95;55.41
29359;BME280;16347;53.232;6.556;2022-09-20T08:36:35;102258.53;;;15.95;55.74
29359;BME280;16347;53.232;6.556;2022-09-20T08:39:04;102263.72;;;15.98;54.81
29359;BME280;16347;53.232;6.556;2022-09-20T08:41:54;102265.59;;;15.98;54.14
29359;BME280;16347;53.232;6.556;2022-09-20T08:44:26;102272.47;;;16.02;53.35
29359;BME280;16347;53.232;6.556;2022-09-20T08:47:05;102272.75;;;15.90;51.64
29359;BME280;16347;53.232;6.556;2022-09-20T08:49:36;102272.50;;;15.84;51.54
29359;BME280;16347;53.232;6.556;2022-09-20T08:52:06;102273.06;;;15.87;51.32
29359;BME280;16347;53.232;6.556;2022-09-20T08:54:37;102266.75;;;15.95;51.32
29359;BME280;16347;53.232;6.556;2022-09-20T08:57:13;102275.09;;;15.85;51.28
29359;BME280;16347;53.232;6.556;2022-09-20T08:59:41;102268.59;;;15.86;51.18
29359;BME280;16347;53.232;6.556;2022-09-20T09:02:14;102268.47;;;15.96;50.92
29359;BME280;16347;53.232;6.556;2022-09-20T09:04:43;102260.66;;;16.01;51.42
29359;BME280;16347;53.232;6.556;2022-09-20T09:07:14;102263.28;;;16.11;51.26
29359;BME280;16347;53.232;6.556;2022-09-20T09:09:45;102262.09;;;16.13;50.94
29359;BME280;16347;53.232;6.556;2022-09-20T09:12:20;102266.28;;;16.25;51.23
29359;BME280;16347;53.232;6.556;2022-09-20T09:14:50;102258.59;;;16.29;50.55
29359;BME280;16347;53.232;6.556;2022-09-20T09:17:22;102262.09;;;16.39;49.96
29359;BME280;16347;53.232;6.556;2022-09-20T09:19:55;102262.31;;;16.46;49.46
29359;BME280;16347;53.232;6.556;2022-09-20T09:22:28;102261.50;;;16.53;49.52
29359;BME280;16347;53.232;6.556;2022-09-20T09:25:24;102269.31;;;16.66;49.68
29359;BME280;16347;53.232;6.556;2022-09-20T09:27:56;102262.94;;;16.57;49.57
29359;BME280;16347;53.232;6.556;2022-09-20T09:30:27;102265.88;;;16.64;49.71
29359;BME280;16347;53.232;6.556;2022-09-20T09:33:15;102267.63;;;16.73;49.93
29359;BME280;16347;53.232;6.556;2022-09-20T09:35:51;102269.53;;;16.72;50.21
29359;BME280;16347;53.232;6.556;2022-09-20T09:38:24;102271.44;;;16.80;50.38
29359;BME280;16347;53.232;6.556;2022-09-20T09:40:54;102268.03;;;16.78;50.13
29359;BME280;16347;53.232;6.556;2022-09-20T09:43:24;102275.94;;;16.81;50.02
29359;BME280;16347;53.232;6.556;2022-09-20T09:45:56;102282.44;;;16.80;49.53
29359;BME280;16347;53.232;6.556;2022-09-20T09:48:42;102283.78;;;16.76;47.19
29359;BME280;16347;53.232;6.556;2022-09-20T09:51:16;102282.94;;;16.75;47.13
29359;BME280;16347;53.232;6.556;2022-09-20T09:53:47;102289.06;;;16.69;47.13
29359;BME280;16347;53.232;6.556;2022-09-20T09:56:30;102291.81;;;16.69;47.29
29359;BME280;16347;53.232;6.556;2022-09-20T09:59:03;102289.13;;;16.77;46.59
29359;BME280;16347;53.232;6.556;2022-09-20T10:01:41;102284.09;;;16.65;47.29
29359;BME280;16347;53.232;6.556;2022-09-20T10:04:17;102291.69;;;16.71;47.99
29359;BME280;16347;53.232;6.556;2022-09-20T10:06:50;102289.94;;;16.70;47.80
29359;BME280;16347;53.232;6.556;2022-09-20T10:09:49;102296.19;;;16.80;47.75
29359;BME280;16347;53.232;6.556;2022-09-20T10:12:28;102296.88;;;16.82;49.00
29359;BME280;16347;53.232;6.556;2022-09-20T10:15:09;102297.25;;;16.87;48.71
29359;BME280;16347;53.232;6.556;2022-09-20T10:17:49;102297.94;;;16.89;48.02
29359;BME280;16347;53.232;6.556;2022-09-20T10:20:29;102293.47;;;16.88;48.40
29359;BME280;16347;53.232;6.556;2022-09-20T10:23:13;102301.91;;;16.95;48.45
29359;BME280;16347;53.232;6.556;2022-09-20T10:26:11;102288.72;;;16.98;48.12
29359;BME280;16347;53.232;6.556;2022-09-20T10:29:02;102295.91;;;16.99;48.25
29359;BME280;16347;53.232;6.556;2022-09-20T10:31:42;102286.16;;;17.05;48.74
29359;BME280;16347;53.232;6.556;2022-09-20T10:34:32;102296.97;;;17.06;48.22
29359;BME280;16347;53.232;6.556;2022-09-20T10:37:11;102284.81;;;17.09;48.66
29359;BME280;16347;53.232;6.556;2022-09-20T10:39:46;102296.00;;;17.15;48.61
29359;BME280;16347;53.232;6.556;2022-09-20T10:42:26;102292.19;;;17.16;48.30
29359;BME280;16347;53.232;6.556;2022-09-20T10:45:17;102294.63;;;17.19;48.35
29359;BME280;16347;53.232;6.556;2022-09-20T10:48:11;102297.88;;;17.23;48.05
29359;BME280;16347;53.232;6.556;2022-09-20T10:50:50;102298.09;;;17.29;48.52
29359;BME280;16347;53.232;6.556;2022-09-20T10:53:26;102305.31;;;17.30;47.16
29359;BME280;16347;53.232;6.556;2022-09-20T10:56:03;102311.81;;;17.21;45.59
29359;BME280;16347;53.232;6.556;2022-09-20T10:59:10;102311.44;;;17.16;45.36
29359;BME280;16347;53.232;6.556;2022-09-20T11:01:51;102300.25;;;17.10;45.53
29359;BME280;16347;53.232;6.556;2022-09-20T11:04:50;102305.06;;;17.16;46.85
29359;BME280;16347;53.232;6.556;2022-09-20T11:07:30;102304.59;;;17.20;45.28
29359;BME280;16347;53.232;6.556;2022-09-20T11:10:13;102303.72;;;17.20;45.00
29359;BME280;16347;53.232;6.556;2022-09-20T11:12:47;102308.06;;;17.22;45.63
29359;BME280;16347;53.232;6.556;2022-09-20T11:15:22;102298.75;;;17.23;45.19
29359;BME280;16347;53.232;6.556;2022-09-20T11:17:58;102302.56;;;17.30;45.28
29359;BME280;16347;53.232;6.556;2022-09-20T11:20:30;102302.41;;;17.32;44.16
29359;BME280;16347;53.232;6.556;2022-09-20T11:23:04;102304.78;;;17.27;43.86
29359;BME280;16347;53.232;6.556;2022-09-20T11:25:39;102298.25;;;17.28;43.68
29359;BME280;16347;53.232;6.556;2022-09-20T11:28:13;102301.34;;;17.33;43.45
29359;BME280;16347;53.232;6.556;2022-09-20T11:30:53;102300.03;;;17.45;43.66
29359;BME280;16347;53.232;6.556;2022-09-20T11:33:27;102301.44;;;17.49;41.24
29359;BME280;16347;53.232;6.556;2022-09-20T11:35:58;102295.09;;;17.57;41.79
29359;BME280;16347;53.232;6.556;2022-09-20T11:38:32;102292.69;;;17.70;40.72
29359;BME280;16347;53.232;6.556;2022-09-20T11:41:07;102292.72;;;17.78;42.41
29359;BME280;16347;53.232;6.556;2022-09-20T11:43:35;102301.81;;;17.70;42.86
29359;BME280;16347;53.232;6.556;2022-09-20T11:46:12;102302.69;;;17.71;44.36
29359;BME280;16347;53.232;6.556;2022-09-20T11:48:45;102299.06;;;17.62;45.83
29359;BME280;16347;53.232;6.556;2022-09-20T11:51:33;102299.59;;;17.66;46.29
29359;BME280;16347;53.232;6.556;2022-09-20T11:54:26;102313.72;;;17.79;46.29
29359;BME280;16347;53.232;6.556;2022-09-20T11:56:58;102315.22;;;17.73;44.63
29359;BME280;16347;53.232;6.556;2022-09-20T11:59:31;102312.31;;;17.59;45.12
29359;BME280;16347;53.232;6.556;2022-09-20T12:02:04;102317.97;;;17.57;45.77
29359;BME280;16347;53.232;6.556;2022-09-20T12:04:42;102317.22;;;17.47;46.57
29359;BME280;16347;53.232;6.556;2022-09-20T12:07:17;102319.09;;;17.47;46.58
29359;BME280;16347;53.232;6.556;2022-09-20T12:09:51;102319.63;;;17.50;46.83
29359;BME280;16347;53.232;6.556;2022-09-20T12:12:31;102321.00;;;17.54;47.28
29359;BME280;16347;53.232;6.556;2022-09-20T12:15:04;102322.22;;;17.52;46.14
29359;BME280;16347;53.232;6.556;2022-09-20T12:18:13;102317.94;;;17.49;45.92
29359;BME280;16347;53.232;6.556;2022-09-20T12:21:08;102309.50;;;17.51;47.02
29359;BME280;16347;53.232;6.556;2022-09-20T12:24:20;102316.09;;;17.66;46.62
29359;BME280;16347;53.232;6.556;2022-09-20T12:26:53;102316.28;;;17.72;45.83
29359;BME280;16347;53.232;6.556;2022-09-20T12:29:52;102308.72;;;17.99;44.97
29359;BME280;16347;53.232;6.556;2022-09-20T12:32:43;102298.41;;;18.25;45.42
29359;BME280;16347;53.232;6.556;2022-09-20T12:38:29;102300.78;;;18.44;42.17
29359;BME280;16347;53.232;6.556;2022-09-20T12:41:05;102300.97;;;18.51;41.42
29359;BME280;16347;53.232;6.556;2022-09-20T12:43:36;102292.69;;;18.59;41.63
29359;BME280;16347;53.232;6.556;2022-09-20T12:46:05;102299.38;;;18.72;40.69
29359;BME280;16347;53.232;6.556;2022-09-20T12:48:37;102296.06;;;18.85;40.90
29359;BME280;16347;53.232;6.556;2022-09-20T12:51:18;102287.91;;;19.00;42.09
29359;BME280;16347;53.232;6.556;2022-09-20T12:54:09;102290.59;;;19.08;41.66
29359;BME280;16347;53.232;6.556;2022-09-20T12:56:40;102310.38;;;19.19;42.89
29359;BME280;16347;53.232;6.556;2022-09-20T12:59:21;102304.16;;;19.17;42.35
29359;BME280;16347;53.232;6.556;2022-09-20T13:01:52;102313.53;;;19.08;42.74
29359;BME280;16347;53.232;6.556;2022-09-20T13:04:40;102308.28;;;18.82;42.64
29359;BME280;16347;53.232;6.556;2022-09-20T13:07:38;102308.28;;;18.82;43.15
29359;BME280;16347;53.232;6.556;2022-09-20T13:10:22;102303.06;;;18.95;43.34
29359;BME280;16347;53.232;6.556;2022-09-20T13:12:56;102306.09;;;19.17;43.13
29359;BME280;16347;53.232;6.556;2022-09-20T13:15:25;102309.25;;;19.06;44.55
29359;BME280;16347;53.232;6.556;2022-09-20T13:17:55;102310.56;;;19.18;44.70
29359;BME280;16347;53.232;6.556;2022-09-20T13:20:27;102312.13;;;19.20;43.35
29359;BME280;16347;53.232;6.556;2022-09-20T13:22:57;102311.63;;;19.17;44.04
29359;BME280;16347;53.232;6.556;2022-09-20T13:25:28;102312.69;;;19.38;44.12
29359;BME280;16347;53.232;6.556;2022-09-20T13:28:04;102315.81;;;19.35;43.51
29359;BME280;16347;53.232;6.556;2022-09-20T13:30:34;102312.34;;;19.41;43.14
29359;BME280;16347;53.232;6.556;2022-09-20T13:33:18;102322.25;;;19.59;43.37
29359;BME280;16347;53.232;6.556;2022-09-20T13:35:49;102315.75;;;19.52;42.73
29359;BME280;16347;53.232;6.556;2022-09-20T13:38:19;102321.09;;;19.53;42.52
29359;BME280;16347;53.232;6.556;2022-09-20T13:40:51;102328.75;;;19.43;43.05
29359;BME280;16347;53.232;6.556;2022-09-20T13:43:29;102317.53;;;19.36;42.68
29359;BME280;16347;53.232;6.556;2022-09-20T13:46:05;102326.19;;;19.33;42.69
29359;BME280;16347;53.232;6.556;2022-09-20T13:48:33;102323.09;;;19.28;42.55
29359;BME280;16347;53.232;6.556;2022-09-20T13:51:02;102332.59;;;19.26;42.43
29359;BME280;16347;53.232;6.556;2022-09-20T13:53:30;102330.72;;;19.18;42.17
29359;BME280;16347;53.232;6.556;2022-09-20T13:56:10;102338.50;;;19.15;41.80
29359;BME280;16347;53.232;6.556;2022-09-20T13:58:43;102334.69;;;19.16;42.25
29359;BME280;16347;53.232;6.556;2022-09-20T14:01:21;102342.63;;;19.19;41.41
29359;BME280;16347;53.232;6.556;2022-09-20T14:03:50;102332.09;;;19.14;41.47
29359;BME280;16347;53.232;6.556;2022-09-20T14:06:22;102338.34;;;19.08;43.12
29359;BME280;16347;53.232;6.556;2022-09-20T14:08:55;102343.69;;;19.10;42.82
29359;BME280;16347;53.232;6.556;2022-09-20T14:11:27;102337.13;;;19.11;43.09
29359;BME280;16347;53.232;6.556;2022-09-20T14:13:58;102344.50;;;19.18;43.55